createdAt,value
2023-02-26T00:02:47.898Z,1.20
2023-02-26T00:07:50.614Z,1.10
2023-02-26T00:12:53.153Z,1.10
2023-02-26T00:18:03.582Z,1.10
2023-02-26T00:23:06.147Z,1.10
2023-02-26T00:28:09.463Z,1.10
2023-02-26T00:33:12.007Z,1.10
2023-02-26T00:38:16.832Z,1.10
2023-02-26T00:43:24.495Z,1.20
2023-02-26T00:48:38.333Z,1.30
2023-02-26T00:54:16.362Z,1.30
2023-02-26T00:59:19.327Z,1.40
2023-02-26T01:04:23.460Z,1.40
2023-02-26T01:09:31.827Z,1.30
2023-02-26T01:14:34.764Z,1.10
2023-02-26T01:19:45.902Z,0.90
2023-02-26T01:24:51.256Z,0.80
2023-02-26T01:29:53.766Z,0.70
2023-02-26T01:35:09.884Z,0.70
2023-02-26T01:41:02.623Z,0.80
2023-02-26T01:46:29.172Z,1.00
2023-02-26T01:51:45.809Z,1.20
2023-02-26T01:56:51.782Z,1.30
2023-02-26T02:01:57.016Z,1.30
2023-02-26T02:07:00.182Z,1.30
2023-02-26T02:12:17.494Z,1.30
2023-02-26T02:17:42.369Z,1.20
2023-02-26T02:22:59.713Z,1.10
2023-02-26T02:28:26.882Z,0.90
2023-02-26T02:33:35.908Z,0.80
2023-02-26T02:38:55.315Z,0.60
2023-02-26T02:44:02.484Z,0.60
2023-02-26T02:49:22.042Z,0.50
2023-02-26T02:54:34.567Z,0.40
2023-02-26T02:59:44.974Z,0.40
2023-02-26T03:04:48.407Z,0.30
2023-02-26T03:09:50.807Z,0.20
2023-02-26T03:14:53.972Z,0.20
2023-02-26T03:20:18.936Z,0.20
2023-02-26T03:25:28.998Z,0.20
2023-02-26T03:30:42.448Z,0.30
2023-02-26T03:35:58.048Z,0.20
2023-02-26T03:41:06.416Z,0.20
2023-02-26T03:46:15.341Z,0.10
2023-02-26T03:51:19.788Z,0.10
2023-02-26T03:57:00.324Z,0.00
2023-02-26T04:02:46.794Z,0.10
2023-02-26T04:07:52.456Z,0.00
2023-02-26T04:12:58.519Z,0.00
2023-02-26T04:18:01.296Z,0.00
2023-02-26T04:23:04.613Z,0.00
2023-02-26T04:28:07.000Z,0.00
2023-02-26T04:33:09.668Z,0.00
2023-02-26T04:38:12.535Z,-0.10
2023-02-26T04:43:14.892Z,-0.10
2023-02-26T04:48:26.758Z,0.10
2023-02-26T04:53:29.282Z,0.10
2023-02-26T04:58:32.068Z,0.20
2023-02-26T05:03:39.724Z,0.20
2023-02-26T05:08:43.142Z,0.30
2023-02-26T05:13:46.012Z,0.30
2023-02-26T05:18:49.249Z,0.40
2023-02-26T05:23:52.966Z,0.40
2023-02-26T05:28:55.267Z,0.40
2023-02-26T05:33:57.620Z,0.30
2023-02-26T05:38:59.905Z,0.30
2023-02-26T05:44:02.624Z,0.50
2023-02-26T05:49:04.948Z,0.60
2023-02-26T05:54:07.217Z,0.70
2023-02-26T05:59:10.100Z,0.80
2023-02-26T06:04:12.463Z,0.90
2023-02-26T06:09:14.854Z,0.90
2023-02-26T06:14:17.208Z,1.00
2023-02-26T06:19:21.649Z,1.10
2023-02-26T06:24:23.998Z,1.20
2023-02-26T06:29:26.402Z,1.20
2023-02-26T06:34:28.724Z,1.20
2023-02-26T06:39:31.048Z,1.20
2023-02-26T06:44:33.427Z,1.30
2023-02-26T06:49:35.890Z,1.30
2023-02-26T06:54:38.401Z,1.30
2023-02-26T06:59:40.773Z,1.50
2023-02-26T07:04:43.144Z,1.70
2023-02-26T07:09:46.149Z,1.90
2023-02-26T07:14:48.943Z,1.90
2023-02-26T07:19:52.842Z,1.90
2023-02-26T07:24:56.040Z,2.00
2023-02-26T07:29:58.347Z,2.10
2023-02-26T07:35:00.655Z,2.20
2023-02-26T07:40:03.472Z,2.20
2023-02-26T07:45:08.067Z,2.00
2023-02-26T07:50:11.098Z,2.10
2023-02-26T07:55:13.508Z,2.20
2023-02-26T08:00:16.474Z,2.40
2023-02-26T08:05:18.930Z,2.60
2023-02-26T08:10:21.274Z,2.90
2023-02-26T08:15:24.487Z,3.10
2023-02-26T08:20:26.817Z,3.20
2023-02-26T08:25:29.239Z,3.20
2023-02-26T08:30:31.859Z,3.30
2023-02-26T08:35:34.198Z,3.40
2023-02-26T08:40:36.702Z,3.30
2023-02-26T08:45:39.152Z,3.30
2023-02-26T08:50:41.518Z,3.40
2023-02-26T08:55:47.454Z,3.30
2023-02-26T09:00:50.237Z,3.40
2023-02-26T09:05:52.515Z,3.60
2023-02-26T09:10:55.101Z,3.60
2023-02-26T09:15:57.546Z,3.70
2023-02-26T09:21:00.624Z,3.90
2023-02-26T09:26:03.060Z,4.00
2023-02-26T09:31:07.314Z,4.00
2023-02-26T09:36:10.094Z,4.00
2023-02-26T09:41:28.364Z,3.90
2023-02-26T09:46:47.083Z,3.80
2023-02-26T09:51:54.370Z,3.70
2023-02-26T09:57:00.035Z,3.70
2023-02-26T10:02:12.842Z,3.90
2023-02-26T10:07:15.134Z,4.50
2023-02-26T10:12:26.429Z,5.20
2023-02-26T10:17:45.055Z,5.40
2023-02-26T10:23:03.123Z,5.80
2023-02-26T10:28:27.958Z,5.90
2023-02-26T10:33:50.255Z,6.40
2023-02-26T10:38:59.129Z,6.50
2023-02-26T10:44:18.030Z,6.40
2023-02-26T10:49:58.821Z,6.30
2023-02-26T10:55:15.595Z,6.20
2023-02-26T11:00:20.599Z,6.50
2023-02-26T11:05:28.834Z,6.90
2023-02-26T11:10:48.755Z,6.90
2023-02-26T11:15:53.752Z,7.10
2023-02-26T11:20:58.733Z,7.90
2023-02-26T11:26:09.077Z,8.10
2023-02-26T11:31:12.924Z,7.30
2023-02-26T11:36:21.189Z,6.60
2023-02-26T11:41:25.856Z,6.10
2023-02-26T11:46:28.936Z,6.50
2023-02-26T11:51:32.255Z,7.00
2023-02-26T11:56:44.308Z,6.70
2023-02-26T12:01:47.756Z,6.40
2023-02-26T12:06:52.011Z,6.10
2023-02-26T12:12:10.282Z,6.10
2023-02-26T12:17:22.176Z,5.90
2023-02-26T12:22:24.421Z,5.60
2023-02-26T12:27:50.196Z,5.50
2023-02-26T12:33:31.754Z,5.60
2023-02-26T12:38:55.710Z,5.70
2023-02-26T12:44:04.035Z,5.70
2023-02-26T12:49:22.064Z,5.50
2023-02-26T12:55:04.404Z,5.60
2023-02-26T13:00:32.615Z,5.70
2023-02-26T13:05:52.234Z,5.90
2023-02-26T13:11:17.471Z,6.10
2023-02-26T13:16:29.620Z,6.40
2023-02-26T13:21:37.559Z,6.60
2023-02-26T13:26:42.375Z,6.80
2023-02-26T13:31:48.209Z,6.90
2023-02-26T13:36:51.153Z,7.00
2023-02-26T13:42:16.232Z,7.10
2023-02-26T13:47:33.423Z,7.40
2023-02-26T13:52:36.947Z,7.50
2023-02-26T13:57:41.918Z,7.30
2023-02-26T14:02:47.588Z,7.20
2023-02-26T14:08:09.940Z,7.70
2023-02-26T14:13:20.499Z,7.20
2023-02-26T14:18:30.126Z,6.80
2023-02-26T14:23:36.667Z,6.50
2023-02-26T14:29:06.652Z,6.40
2023-02-26T14:34:36.816Z,6.30
2023-02-26T14:40:10.079Z,6.10
2023-02-26T14:45:35.107Z,6.00
2023-02-26T14:51:01.704Z,5.90
2023-02-26T14:56:07.118Z,5.80
2023-02-26T15:01:45.289Z,5.90
2023-02-26T15:07:12.157Z,5.70
2023-02-26T15:12:51.393Z,5.50
2023-02-26T15:18:18.822Z,5.50
2023-02-26T15:23:43.258Z,6.20
2023-02-26T15:28:46.101Z,6.70
2023-02-26T15:33:49.354Z,6.10
2023-02-26T15:38:57.969Z,5.80
2023-02-26T15:44:13.980Z,5.60
2023-02-26T15:49:19.008Z,5.80
2023-02-26T15:54:24.652Z,5.80
2023-02-26T15:59:29.800Z,5.40
2023-02-26T16:04:35.688Z,5.20
2023-02-26T16:09:46.509Z,5.00
2023-02-26T16:14:57.169Z,4.90
2023-02-26T16:20:04.009Z,4.70
2023-02-26T16:25:28.754Z,4.60
2023-02-26T16:30:37.730Z,4.50
2023-02-26T16:35:49.050Z,4.40
2023-02-26T16:41:05.991Z,4.40
2023-02-26T16:46:13.495Z,4.40
2023-02-26T16:51:20.320Z,4.30
2023-02-26T16:56:27.813Z,4.30
2023-02-26T17:01:37.678Z,4.20
2023-02-26T17:06:41.980Z,4.10
2023-02-26T17:11:45.685Z,4.10
2023-02-26T17:16:49.691Z,3.90
2023-02-26T17:21:57.851Z,3.70
2023-02-26T17:27:02.138Z,3.50
2023-02-26T17:32:06.166Z,3.50
2023-02-26T17:37:13.521Z,3.50
2023-02-26T17:42:23.212Z,3.50
2023-02-26T17:47:26.987Z,3.50
2023-02-26T17:52:30.730Z,3.30
2023-02-26T17:57:33.007Z,3.20
2023-02-26T18:02:35.455Z,3.10
2023-02-26T18:07:38.686Z,2.80
2023-02-26T18:12:41.044Z,2.70
2023-02-26T18:17:43.335Z,2.60
2023-02-26T18:22:47.930Z,2.50
2023-02-26T18:27:54.656Z,2.60
2023-02-26T18:32:57.148Z,2.80
2023-02-26T18:37:59.699Z,2.80
2023-02-26T18:43:02.500Z,2.90
2023-02-26T18:48:05.158Z,2.90
2023-02-26T18:53:07.798Z,2.90
2023-02-26T18:58:10.220Z,2.90
2023-02-26T19:03:12.663Z,2.80
2023-02-26T19:08:15.301Z,2.60
2023-02-26T19:13:17.532Z,2.50
2023-02-26T19:18:20.647Z,2.50
2023-02-26T19:23:24.017Z,2.50
2023-02-26T19:28:26.312Z,2.50
2023-02-26T19:33:28.841Z,2.40
2023-02-26T19:38:31.255Z,2.40
2023-02-26T19:43:33.997Z,2.50
2023-02-26T19:48:36.310Z,2.50
2023-02-26T19:53:38.617Z,2.60
2023-02-26T19:58:41.760Z,2.60
2023-02-26T20:03:44.305Z,2.60
2023-02-26T20:08:46.982Z,2.60
2023-02-26T20:13:49.345Z,2.70
2023-02-26T20:18:51.602Z,2.70
2023-02-26T20:23:54.120Z,2.70
2023-02-26T20:28:56.461Z,2.70
2023-02-26T20:33:58.829Z,2.70
2023-02-26T20:39:02.535Z,2.70
2023-02-26T20:44:05.265Z,2.70
2023-02-26T20:49:11.772Z,2.70
2023-02-26T20:54:15.077Z,2.70
2023-02-26T20:59:18.606Z,2.60
2023-02-26T21:04:21.065Z,2.60
2023-02-26T21:09:23.314Z,2.70
2023-02-26T21:14:26.862Z,2.60
2023-02-26T21:19:29.241Z,2.60
2023-02-26T21:24:31.636Z,2.60
2023-02-26T21:29:34.135Z,2.60
2023-02-26T21:34:36.823Z,2.60
2023-02-26T21:39:39.371Z,2.60
2023-02-26T21:44:42.065Z,2.60
2023-02-26T21:49:44.586Z,2.70
2023-02-26T21:54:46.863Z,2.60
2023-02-26T21:59:49.234Z,2.60
2023-02-26T22:04:51.515Z,2.50
2023-02-26T22:09:53.748Z,2.60
2023-02-26T22:14:56.141Z,2.50
2023-02-26T22:19:58.583Z,2.50
2023-02-26T22:25:00.820Z,2.50
2023-02-26T22:30:03.320Z,2.40
2023-02-26T22:35:06.202Z,2.50
2023-02-26T22:40:09.898Z,2.40
2023-02-26T22:45:13.817Z,2.40
2023-02-26T22:50:17.149Z,2.40
2023-02-26T22:55:19.569Z,2.40
2023-02-26T23:00:22.449Z,2.40
2023-02-26T23:05:24.859Z,2.50
2023-02-26T23:10:27.308Z,2.30
2023-02-26T23:15:30.324Z,2.20
2023-02-26T23:20:32.690Z,2.00
2023-02-26T23:25:35.047Z,1.90
2023-02-26T23:30:37.742Z,1.70
2023-02-26T23:35:40.172Z,1.60
2023-02-26T23:40:42.599Z,1.40
2023-02-26T23:45:45.216Z,1.30
2023-02-26T23:50:49.243Z,1.10
2023-02-26T23:55:57.036Z,1.00
